sensor_id;sensor_type;location;lat;lon;timestamp;temperature;humidity
24412;DHT22;12544;46.760;15.942;2022-09-09T00:04:28;17.90;99.90
24412;DHT22;12544;46.760;15.942;2022-09-09T00:06:59;17.80;99.90
24412;DHT22;12544;46.760;15.942;2022-09-09T00:09:28;17.70;99.90
24412;DHT22;12544;46.760;15.942;2022-09-09T00:12:15;17.60;99.90
24412;DHT22;12544;46.760;15.942;2022-09-09T00:14:45;17.50;99.90
24412;DHT22;12544;46.760;15.942;2022-09-09T00:19:54;17.30;99.90
24412;DHT22;12544;46.760;15.942;2022-09-09T00:22:24;17.20;99.90
24412;DHT22;12544;46.760;15.942;2022-09-09T00:24:55;17.10;99.90
24412;DHT22;12544;46.760;15.942;2022-09-09T00:27:31;17.10;99.90
24412;DHT22;12544;46.760;15.942;2022-09-09T00:32:28;17.00;99.90
24412;DHT22;12544;46.760;15.942;2022-09-09T00:35:02;16.90;99.90
24412;DHT22;12544;46.760;15.942;2022-09-09T00:37:28;16.90;99.90
24412;DHT22;12544;46.760;15.942;2022-09-09T00:39:59;17.00;99.90
24412;DHT22;12544;46.760;15.942;2022-09-09T00:42:36;17.00;99.90
24412;DHT22;12544;46.760;15.942;2022-09-09T00:47:43;17.10;99.90
24412;DHT22;12544;46.760;15.942;2022-09-09T00:52:51;17.00;99.90
24412;DHT22;12544;46.760;15.942;2022-09-09T00:57:49;17.10;99.90
24412;DHT22;12544;46.760;15.942;2022-09-09T01:02:49;17.10;99.90
24412;DHT22;12544;46.760;15.942;2022-09-09T01:05:23;17.20;99.90
24412;DHT22;12544;46.760;15.942;2022-09-09T01:07:52;17.10;99.90
24412;DHT22;12544;46.760;15.942;2022-09-09T01:13:25;17.10;99.90
24412;DHT22;12544;46.760;15.942;2022-09-09T01:15:51;17.10;99.90
24412;DHT22;12544;46.760;15.942;2022-09-09T01:18:20;17.00;99.90
24412;DHT22;12544;46.760;15.942;2022-09-09T01:26:29;16.90;99.90
24412;DHT22;12544;46.760;15.942;2022-09-09T01:28:56;16.70;99.90
24412;DHT22;12544;46.760;15.942;2022-09-09T01:31:31;16.70;99.90
24412;DHT22;12544;46.760;15.942;2022-09-09T01:33:57;16.60;99.90
24412;DHT22;12544;46.760;15.942;2022-09-09T01:36:32;16.60;99.90
24412;DHT22;12544;46.760;15.942;2022-09-09T01:38:58;16.60;99.90
24412;DHT22;12544;46.760;15.942;2022-09-09T01:41:24;16.60;99.90
24412;DHT22;12544;46.760;15.942;2022-09-09T01:43:49;16.60;99.90
24412;DHT22;12544;46.760;15.942;2022-09-09T01:46:16;16.70;99.90
24412;DHT22;12544;46.760;15.942;2022-09-09T01:48:42;16.70;99.90
24412;DHT22;12544;46.760;15.942;2022-09-09T01:51:08;16.70;99.90
24412;DHT22;12544;46.760;15.942;2022-09-09T01:53:35;16.70;99.90
24412;DHT22;12544;46.760;15.942;2022-09-09T01:56:21;16.70;99.90
24412;DHT22;12544;46.760;15.942;2022-09-09T02:04:54;16.80;99.90
24412;DHT22;12544;46.760;15.942;2022-09-09T02:06:54;16.80;99.90
24412;DHT22;12544;46.760;15.942;2022-09-09T02:09:21;16.80;99.90
24412;DHT22;12544;46.760;15.942;2022-09-09T02:11:48;16.80;99.90
24412;DHT22;12544;46.760;15.942;2022-09-09T02:14:20;16.70;99.90
24412;DHT22;12544;46.760;15.942;2022-09-09T02:16:48;16.60;99.90
24412;DHT22;12544;46.760;15.942;2022-09-09T02:19:23;16.50;99.90
24412;DHT22;12544;46.760;15.942;2022-09-09T02:21:52;16.50;99.90
24412;DHT22;12544;46.760;15.942;2022-09-09T02:24:19;16.60;99.90
24412;DHT22;12544;46.760;15.942;2022-09-09T02:26:45;16.60;99.90
24412;DHT22;12544;46.760;15.942;2022-09-09T02:29:13;16.70;99.90
24412;DHT22;12544;46.760;15.942;2022-09-09T02:31:39;16.80;99.90
24412;DHT22;12544;46.760;15.942;2022-09-09T02:34:06;16.80;99.90
24412;DHT22;12544;46.760;15.942;2022-09-09T02:36:36;16.80;99.90
24412;DHT22;12544;46.760;15.942;2022-09-09T02:39:02;16.80;99.90
24412;DHT22;12544;46.760;15.942;2022-09-09T02:41:33;16.70;99.90
24412;DHT22;12544;46.760;15.942;2022-09-09T02:43:59;16.70;99.90
24412;DHT22;12544;46.760;15.942;2022-09-09T02:46:27;16.70;99.90
24412;DHT22;12544;46.760;15.942;2022-09-09T02:54:15;16.70;99.90
24412;DHT22;12544;46.760;15.942;2022-09-09T02:56:44;16.60;99.90
24412;DHT22;12544;46.760;15.942;2022-09-09T02:59:11;16.60;99.90
24412;DHT22;12544;46.760;15.942;2022-09-09T03:01:36;16.60;99.90
24412;DHT22;12544;46.760;15.942;2022-09-09T03:04:05;16.60;99.90
24412;DHT22;12544;46.760;15.942;2022-09-09T03:06:30;16.50;99.90
24412;DHT22;12544;46.760;15.942;2022-09-09T03:08:56;16.50;99.90
24412;DHT22;12544;46.760;15.942;2022-09-09T03:11:24;16.50;99.90
24412;DHT22;12544;46.760;15.942;2022-09-09T03:13:50;16.50;99.90
24412;DHT22;12544;46.760;15.942;2022-09-09T03:16:15;16.50;99.90
24412;DHT22;12544;46.760;15.942;2022-09-09T03:18:41;16.50;99.90
24412;DHT22;12544;46.760;15.942;2022-09-09T03:21:07;16.50;99.90
24412;DHT22;12544;46.760;15.942;2022-09-09T03:23:33;16.60;99.90
24412;DHT22;12544;46.760;15.942;2022-09-09T03:25:59;16.60;99.90
24412;DHT22;12544;46.760;15.942;2022-09-09T03:28:25;16.60;99.90
24412;DHT22;12544;46.760;15.942;2022-09-09T03:31:02;16.70;99.90
24412;DHT22;12544;46.760;15.942;2022-09-09T03:33:28;16.70;99.90
24412;DHT22;12544;46.760;15.942;2022-09-09T03:35:55;16.70;99.90
24412;DHT22;12544;46.760;15.942;2022-09-09T03:38:24;16.70;99.90
24412;DHT22;12544;46.760;15.942;2022-09-09T03:40:54;16.70;99.90
24412;DHT22;12544;46.760;15.942;2022-09-09T03:43:21;16.80;99.90
24412;DHT22;12544;46.760;15.942;2022-09-09T03:45:47;16.80;99.90
24412;DHT22;12544;46.760;15.942;2022-09-09T03:48:13;16.90;99.90
24412;DHT22;12544;46.760;15.942;2022-09-09T03:50:39;16.90;99.90
24412;DHT22;12544;46.760;15.942;2022-09-09T03:53:04;16.90;99.90
24412;DHT22;12544;46.760;15.942;2022-09-09T03:55:31;16.90;99.90
24412;DHT22;12544;46.760;15.942;2022-09-09T03:57:57;16.90;99.90
24412;DHT22;12544;46.760;15.942;2022-09-09T04:00:23;16.90;99.90
24412;DHT22;12544;46.760;15.942;2022-09-09T04:02:49;16.90;99.90
24412;DHT22;12544;46.760;15.942;2022-09-09T04:05:15;16.90;99.90
24412;DHT22;12544;46.760;15.942;2022-09-09T04:07:40;17.00;99.90
24412;DHT22;12544;46.760;15.942;2022-09-09T04:10:06;17.00;99.90
24412;DHT22;12544;46.760;15.942;2022-09-09T04:12:32;17.00;99.90
24412;DHT22;12544;46.760;15.942;2022-09-09T04:14:58;17.00;99.90
24412;DHT22;12544;46.760;15.942;2022-09-09T04:17:23;17.00;99.90
24412;DHT22;12544;46.760;15.942;2022-09-09T04:19:49;16.90;99.90
24412;DHT22;12544;46.760;15.942;2022-09-09T04:22:14;16.90;99.90
24412;DHT22;12544;46.760;15.942;2022-09-09T04:24:41;16.80;99.90
24412;DHT22;12544;46.760;15.942;2022-09-09T04:27:06;16.70;99.90
24412;DHT22;12544;46.760;15.942;2022-09-09T04:29:32;16.70;99.90
24412;DHT22;12544;46.760;15.942;2022-09-09T04:31:58;16.60;99.90
24412;DHT22;12544;46.760;15.942;2022-09-09T04:34:24;16.60;99.90
24412;DHT22;12544;46.760;15.942;2022-09-09T04:39:25;16.60;99.90
24412;DHT22;12544;46.760;15.942;2022-09-09T04:41:51;16.70;99.90
24412;DHT22;12544;46.760;15.942;2022-09-09T04:44:16;16.70;99.90
24412;DHT22;12544;46.760;15.942;2022-09-09T04:46:42;16.70;99.90
24412;DHT22;12544;46.760;15.942;2022-09-09T04:49:08;16.80;99.90
24412;DHT22;12544;46.760;15.942;2022-09-09T04:51:33;16.80;99.90
24412;DHT22;12544;46.760;15.942;2022-09-09T04:53:59;16.70;99.90
24412;DHT22;12544;46.760;15.942;2022-09-09T04:56:24;16.70;99.90
24412;DHT22;12544;46.760;15.942;2022-09-09T04:58:52;16.60;99.90
24412;DHT22;12544;46.760;15.942;2022-09-09T05:01:18;16.40;99.90
24412;DHT22;12544;46.760;15.942;2022-09-09T05:03:44;16.40;99.90
24412;DHT22;12544;46.760;15.942;2022-09-09T05:06:16;16.40;99.90
24412;DHT22;12544;46.760;15.942;2022-09-09T05:08:42;16.50;99.90
24412;DHT22;12544;46.760;15.942;2022-09-09T05:11:18;16.50;99.90
24412;DHT22;12544;46.760;15.942;2022-09-09T05:13:44;16.50;99.90
24412;DHT22;12544;46.760;15.942;2022-09-09T05:16:10;16.50;99.90
24412;DHT22;12544;46.760;15.942;2022-09-09T05:18:37;16.50;99.90
24412;DHT22;12544;46.760;15.942;2022-09-09T05:21:02;16.60;99.90
24412;DHT22;12544;46.760;15.942;2022-09-09T05:23:28;16.60;99.90
24412;DHT22;12544;46.760;15.942;2022-09-09T05:25:56;16.60;99.90
24412;DHT22;12544;46.760;15.942;2022-09-09T05:28:23;16.60;99.90
24412;DHT22;12544;46.760;15.942;2022-09-09T05:31:08;16.60;99.90
24412;DHT22;12544;46.760;15.942;2022-09-09T05:33:34;16.60;99.90
24412;DHT22;12544;46.760;15.942;2022-09-09T05:36:04;16.70;99.90
24412;DHT22;12544;46.760;15.942;2022-09-09T05:38:30;16.70;99.90
24412;DHT22;12544;46.760;15.942;2022-09-09T05:40:56;16.80;99.90
24412;DHT22;12544;46.760;15.942;2022-09-09T05:43:22;16.90;99.90
24412;DHT22;12544;46.760;15.942;2022-09-09T05:45:48;17.00;99.90
24412;DHT22;12544;46.760;15.942;2022-09-09T05:48:14;17.00;99.90
24412;DHT22;12544;46.760;15.942;2022-09-09T05:50:43;17.10;99.90
24412;DHT22;12544;46.760;15.942;2022-09-09T05:53:10;17.10;99.90
24412;DHT22;12544;46.760;15.942;2022-09-09T05:55:36;17.20;99.90
24412;DHT22;12544;46.760;15.942;2022-09-09T05:58:01;17.10;99.90
24412;DHT22;12544;46.760;15.942;2022-09-09T06:00:27;17.10;99.90
24412;DHT22;12544;46.760;15.942;2022-09-09T06:02:54;17.10;99.90
24412;DHT22;12544;46.760;15.942;2022-09-09T06:05:20;17.10;99.90
24412;DHT22;12544;46.760;15.942;2022-09-09T06:07:48;17.10;99.90
24412;DHT22;12544;46.760;15.942;2022-09-09T06:10:13;17.00;99.90
24412;DHT22;12544;46.760;15.942;2022-09-09T06:12:39;17.00;99.90
24412;DHT22;12544;46.760;15.942;2022-09-09T06:15:04;17.10;99.90
24412;DHT22;12544;46.760;15.942;2022-09-09T06:17:30;17.00;99.90
24412;DHT22;12544;46.760;15.942;2022-09-09T06:19:56;17.00;99.90
24412;DHT22;12544;46.760;15.942;2022-09-09T06:22:21;17.10;99.90
24412;DHT22;12544;46.760;15.942;2022-09-09T06:24:47;17.20;99.90
24412;DHT22;12544;46.760;15.942;2022-09-09T06:27:12;17.30;99.90
24412;DHT22;12544;46.760;15.942;2022-09-09T06:29:39;17.40;99.90
24412;DHT22;12544;46.760;15.942;2022-09-09T06:32:04;17.40;99.90
24412;DHT22;12544;46.760;15.942;2022-09-09T06:34:30;17.50;99.90
24412;DHT22;12544;46.760;15.942;2022-09-09T06:36:55;17.50;99.90
24412;DHT22;12544;46.760;15.942;2022-09-09T06:39:22;17.60;99.90
24412;DHT22;12544;46.760;15.942;2022-09-09T06:41:51;17.60;99.90
24412;DHT22;12544;46.760;15.942;2022-09-09T06:44:18;17.60;99.90
24412;DHT22;12544;46.760;15.942;2022-09-09T06:46:44;17.70;99.90
24412;DHT22;12544;46.760;15.942;2022-09-09T06:49:12;17.70;99.90
24412;DHT22;12544;46.760;15.942;2022-09-09T06:51:38;17.80;99.90
24412;DHT22;12544;46.760;15.942;2022-09-09T06:54:07;17.90;99.90
24412;DHT22;12544;46.760;15.942;2022-09-09T06:56:35;17.90;99.90
24412;DHT22;12544;46.760;15.942;2022-09-09T06:59:01;17.90;99.90
24412;DHT22;12544;46.760;15.942;2022-09-09T07:01:30;18.00;99.90
24412;DHT22;12544;46.760;15.942;2022-09-09T07:03:57;18.10;99.90
24412;DHT22;12544;46.760;15.942;2022-09-09T07:06:28;18.20;99.90
24412;DHT22;12544;46.760;15.942;2022-09-09T07:08:55;18.20;99.90
24412;DHT22;12544;46.760;15.942;2022-09-09T07:11:21;18.30;99.90
24412;DHT22;12544;46.760;15.942;2022-09-09T07:13:47;18.40;99.90
24412;DHT22;12544;46.760;15.942;2022-09-09T07:16:14;18.40;99.90
24412;DHT22;12544;46.760;15.942;2022-09-09T07:18:40;18.40;99.90
24412;DHT22;12544;46.760;15.942;2022-09-09T07:21:06;18.50;99.90
24412;DHT22;12544;46.760;15.942;2022-09-09T07:23:32;18.60;99.90
24412;DHT22;12544;46.760;15.942;2022-09-09T07:25:58;18.60;99.90
24412;DHT22;12544;46.760;15.942;2022-09-09T07:28:23;18.60;99.90
24412;DHT22;12544;46.760;15.942;2022-09-09T07:30:58;18.70;99.90
24412;DHT22;12544;46.760;15.942;2022-09-09T07:33:25;18.70;99.90
24412;DHT22;12544;46.760;15.942;2022-09-09T07:35:51;18.70;99.90
24412;DHT22;12544;46.760;15.942;2022-09-09T07:38:17;18.80;99.90
24412;DHT22;12544;46.760;15.942;2022-09-09T07:40:43;18.80;99.90
24412;DHT22;12544;46.760;15.942;2022-09-09T07:43:09;18.80;99.90
24412;DHT22;12544;46.760;15.942;2022-09-09T07:45:34;18.90;99.90
24412;DHT22;12544;46.760;15.942;2022-09-09T07:48:01;18.90;99.90
24412;DHT22;12544;46.760;15.942;2022-09-09T07:50:27;19.00;99.90
24412;DHT22;12544;46.760;15.942;2022-09-09T07:52:52;19.10;99.90
24412;DHT22;12544;46.760;15.942;2022-09-09T07:55:19;19.10;99.90
24412;DHT22;12544;46.760;15.942;2022-09-09T07:57:44;19.20;99.90
24412;DHT22;12544;46.760;15.942;2022-09-09T08:00:10;19.30;99.90
24412;DHT22;12544;46.760;15.942;2022-09-09T08:02:36;19.30;99.90
24412;DHT22;12544;46.760;15.942;2022-09-09T08:05:01;19.40;99.90
24412;DHT22;12544;46.760;15.942;2022-09-09T08:07:27;19.50;99.90
24412;DHT22;12544;46.760;15.942;2022-09-09T08:09:53;19.50;99.90
24412;DHT22;12544;46.760;15.942;2022-09-09T08:12:21;19.60;99.90
24412;DHT22;12544;46.760;15.942;2022-09-09T08:14:46;19.70;99.90
24412;DHT22;12544;46.760;15.942;2022-09-09T08:17:13;19.70;99.90
24412;DHT22;12544;46.760;15.942;2022-09-09T08:19:39;19.70;99.90
24412;DHT22;12544;46.760;15.942;2022-09-09T08:22:04;19.70;99.90
24412;DHT22;12544;46.760;15.942;2022-09-09T08:24:30;19.80;99.90
24412;DHT22;12544;46.760;15.942;2022-09-09T08:26:55;19.90;99.90
24412;DHT22;12544;46.760;15.942;2022-09-09T08:29:22;20.00;99.90
24412;DHT22;12544;46.760;15.942;2022-09-09T08:31:48;20.00;99.90
24412;DHT22;12544;46.760;15.942;2022-09-09T08:34:14;20.00;99.90
24412;DHT22;12544;46.760;15.942;2022-09-09T08:36:41;20.10;99.90
24412;DHT22;12544;46.760;15.942;2022-09-09T08:39:08;20.20;99.90
24412;DHT22;12544;46.760;15.942;2022-09-09T08:44:01;20.50;99.90
24412;DHT22;12544;46.760;15.942;2022-09-09T08:46:41;20.50;99.90
24412;DHT22;12544;46.760;15.942;2022-09-09T08:49:18;20.50;99.90
24412;DHT22;12544;46.760;15.942;2022-09-09T08:51:45;20.60;99.90
24412;DHT22;12544;46.760;15.942;2022-09-09T08:54:11;20.70;99.90
24412;DHT22;12544;46.760;15.942;2022-09-09T08:56:36;20.80;99.90
24412;DHT22;12544;46.760;15.942;2022-09-09T08:59:02;20.90;99.90
24412;DHT22;12544;46.760;15.942;2022-09-09T09:01:42;21.00;99.90
24412;DHT22;12544;46.760;15.942;2022-09-09T09:11:59;21.40;99.90
24412;DHT22;12544;46.760;15.942;2022-09-09T09:14:28;21.50;99.90
24412;DHT22;12544;46.760;15.942;2022-09-09T09:16:56;21.50;99.90
24412;DHT22;12544;46.760;15.942;2022-09-09T09:19:22;21.70;99.90
24412;DHT22;12544;46.760;15.942;2022-09-09T09:22:05;21.80;99.90
24412;DHT22;12544;46.760;15.942;2022-09-09T09:24:52;21.80;99.90
24412;DHT22;12544;46.760;15.942;2022-09-09T09:27:32;21.90;99.90
24412;DHT22;12544;46.760;15.942;2022-09-09T09:29:59;21.80;99.90
24412;DHT22;12544;46.760;15.942;2022-09-09T09:32:25;21.80;99.90
24412;DHT22;12544;46.760;15.942;2022-09-09T09:34:56;21.90;99.90
24412;DHT22;12544;46.760;15.942;2022-09-09T09:37:29;22.00;99.90
24412;DHT22;12544;46.760;15.942;2022-09-09T09:39:55;22.20;99.90
24412;DHT22;12544;46.760;15.942;2022-09-09T09:42:21;22.20;99.90
24412;DHT22;12544;46.760;15.942;2022-09-09T09:44:47;22.30;99.90
24412;DHT22;12544;46.760;15.942;2022-09-09T09:47:15;22.20;99.90
24412;DHT22;12544;46.760;15.942;2022-09-09T09:49:51;22.30;99.90
24412;DHT22;12544;46.760;15.942;2022-09-09T09:52:17;22.30;99.90
24412;DHT22;12544;46.760;15.942;2022-09-09T09:54:46;22.40;99.90
24412;DHT22;12544;46.760;15.942;2022-09-09T09:57:12;22.30;99.90
24412;DHT22;12544;46.760;15.942;2022-09-09T09:59:39;22.50;99.90
24412;DHT22;12544;46.760;15.942;2022-09-09T10:04:36;22.80;99.90
24412;DHT22;12544;46.760;15.942;2022-09-09T10:07:09;22.90;99.90
24412;DHT22;12544;46.760;15.942;2022-09-09T10:09:35;23.00;99.90
24412;DHT22;12544;46.760;15.942;2022-09-09T10:12:47;23.20;99.90
24412;DHT22;12544;46.760;15.942;2022-09-09T10:19:52;23.00;99.90
24412;DHT22;12544;46.760;15.942;2022-09-09T10:22:32;22.80;99.90
24412;DHT22;12544;46.760;15.942;2022-09-09T10:40:34;23.30;99.90
24412;DHT22;12544;46.760;15.942;2022-09-09T10:43:28;23.50;99.90
24412;DHT22;12544;46.760;15.942;2022-09-09T10:45:59;23.70;99.90
24412;DHT22;12544;46.760;15.942;2022-09-09T10:51:18;24.00;99.90
24412;DHT22;12544;46.760;15.942;2022-09-09T10:56:30;24.20;99.90
24412;DHT22;12544;46.760;15.942;2022-09-09T10:58:59;24.20;99.90
24412;DHT22;12544;46.760;15.942;2022-09-09T11:01:26;24.30;99.90
24412;DHT22;12544;46.760;15.942;2022-09-09T11:03:57;24.40;99.90
24412;DHT22;12544;46.760;15.942;2022-09-09T11:06:29;24.20;99.90
24412;DHT22;12544;46.760;15.942;2022-09-09T11:08:57;24.10;99.90
24412;DHT22;12544;46.760;15.942;2022-09-09T11:11:39;24.10;99.90
24412;DHT22;12544;46.760;15.942;2022-09-09T11:16:52;23.90;99.90
24412;DHT22;12544;46.760;15.942;2022-09-09T11:21:53;23.90;99.90
24412;DHT22;12544;46.760;15.942;2022-09-09T11:24:24;24.00;99.90
24412;DHT22;12544;46.760;15.942;2022-09-09T11:27:14;24.00;99.90
24412;DHT22;12544;46.760;15.942;2022-09-09T11:33:00;24.10;99.90
24412;DHT22;12544;46.760;15.942;2022-09-09T11:35:20;24.00;99.90
24412;DHT22;12544;46.760;15.942;2022-09-09T11:42:39;24.30;99.90
24412;DHT22;12544;46.760;15.942;2022-09-09T11:45:15;24.40;99.90
24412;DHT22;12544;46.760;15.942;2022-09-09T11:47:51;24.40;99.90
24412;DHT22;12544;46.760;15.942;2022-09-09T11:52:47;24.40;99.90
24412;DHT22;12544;46.760;15.942;2022-09-09T11:55:26;24.40;99.90
24412;DHT22;12544;46.760;15.942;2022-09-09T11:57:59;24.40;99.90
24412;DHT22;12544;46.760;15.942;2022-09-09T12:00:42;24.40;99.90
24412;DHT22;12544;46.760;15.942;2022-09-09T12:05:54;24.20;99.90
24412;DHT22;12544;46.760;15.942;2022-09-09T12:08:24;24.10;99.90
24412;DHT22;12544;46.760;15.942;2022-09-09T12:10:54;24.10;99.90
24412;DHT22;12544;46.760;15.942;2022-09-09T12:13:22;24.10;99.90
24412;DHT22;12544;46.760;15.942;2022-09-09T12:18:31;24.10;99.90
24412;DHT22;12544;46.760;15.942;2022-09-09T12:21:18;24.00;99.90
24412;DHT22;12544;46.760;15.942;2022-09-09T12:24:07;24.10;99.90
24412;DHT22;12544;46.760;15.942;2022-09-09T12:29:43;23.90;99.90
24412;DHT22;12544;46.760;15.942;2022-09-09T12:37:00;23.80;99.90
24412;DHT22;12544;46.760;15.942;2022-09-09T12:41:56;23.90;99.90
24412;DHT22;12544;46.760;15.942;2022-09-09T12:44:23;24.00;99.90
24412;DHT22;12544;46.760;15.942;2022-09-09T12:46:49;24.00;99.90
24412;DHT22;12544;46.760;15.942;2022-09-09T12:52:17;24.00;99.90
24412;DHT22;12544;46.760;15.942;2022-09-09T12:54:45;24.00;99.90
24412;DHT22;12544;46.760;15.942;2022-09-09T12:57:12;23.90;99.90
24412;DHT22;12544;46.760;15.942;2022-09-09T12:59:39;23.90;99.90
24412;DHT22;12544;46.760;15.942;2022-09-09T13:02:14;23.80;99.90
24412;DHT22;12544;46.760;15.942;2022-09-09T13:04:41;23.90;99.90
24412;DHT22;12544;46.760;15.942;2022-09-09T13:07:07;23.90;99.90
24412;DHT22;12544;46.760;15.942;2022-09-09T13:09:35;23.90;99.90
24412;DHT22;12544;46.760;15.942;2022-09-09T13:12:02;24.00;99.90
24412;DHT22;12544;46.760;15.942;2022-09-09T13:14:32;24.00;99.90
24412;DHT22;12544;46.760;15.942;2022-09-09T13:17:00;24.00;99.90
24412;DHT22;12544;46.760;15.942;2022-09-09T13:19:26;24.00;99.90
24412;DHT22;12544;46.760;15.942;2022-09-09T13:21:54;24.00;99.90
24412;DHT22;12544;46.760;15.942;2022-09-09T13:24:33;24.00;99.90
24412;DHT22;12544;46.760;15.942;2022-09-09T13:27:00;23.90;99.90
24412;DHT22;12544;46.760;15.942;2022-09-09T13:29:30;23.90;99.90
24412;DHT22;12544;46.760;15.942;2022-09-09T13:32:05;24.00;99.90
24412;DHT22;12544;46.760;15.942;2022-09-09T13:34:32;24.10;99.90
24412;DHT22;12544;46.760;15.942;2022-09-09T13:37:02;24.20;99.90
24412;DHT22;12544;46.760;15.942;2022-09-09T13:39:31;24.30;99.90
24412;DHT22;12544;46.760;15.942;2022-09-09T13:41:57;24.20;99.90
24412;DHT22;12544;46.760;15.942;2022-09-09T13:44:34;24.30;99.90
24412;DHT22;12544;46.760;15.942;2022-09-09T13:47:02;24.40;99.90
24412;DHT22;12544;46.760;15.942;2022-09-09T13:49:29;24.40;99.90
24412;DHT22;12544;46.760;15.942;2022-09-09T13:52:06;24.40;99.90
24412;DHT22;12544;46.760;15.942;2022-09-09T13:54:34;24.40;99.90
24412;DHT22;12544;46.760;15.942;2022-09-09T13:57:00;24.50;99.90
24412;DHT22;12544;46.760;15.942;2022-09-09T13:59:26;24.50;99.90
24412;DHT22;12544;46.760;15.942;2022-09-09T14:01:52;24.50;99.90
24412;DHT22;12544;46.760;15.942;2022-09-09T14:04:18;24.50;99.90
24412;DHT22;12544;46.760;15.942;2022-09-09T14:06:45;24.50;99.90
24412;DHT22;12544;46.760;15.942;2022-09-09T14:09:24;24.60;99.90
24412;DHT22;12544;46.760;15.942;2022-09-09T14:11:50;24.50;99.90
24412;DHT22;12544;46.760;15.942;2022-09-09T14:14:15;24.40;99.90
24412;DHT22;12544;46.760;15.942;2022-09-09T14:16:41;24.40;99.90
24412;DHT22;12544;46.760;15.942;2022-09-09T14:19:07;24.30;99.90
24412;DHT22;12544;46.760;15.942;2022-09-09T14:21:33;24.30;99.90
24412;DHT22;12544;46.760;15.942;2022-09-09T14:23:58;24.30;99.90
24412;DHT22;12544;46.760;15.942;2022-09-09T14:26:25;24.30;99.90
24412;DHT22;12544;46.760;15.942;2022-09-09T14:28:51;24.30;99.90
24412;DHT22;12544;46.760;15.942;2022-09-09T14:31:17;24.40;99.90
24412;DHT22;12544;46.760;15.942;2022-09-09T14:33:43;24.40;99.90
24412;DHT22;12544;46.760;15.942;2022-09-09T14:36:09;24.40;99.90
24412;DHT22;12544;46.760;15.942;2022-09-09T14:38:36;24.40;99.90
24412;DHT22;12544;46.760;15.942;2022-09-09T14:41:15;24.40;99.90
24412;DHT22;12544;46.760;15.942;2022-09-09T14:43:45;24.40;99.90
24412;DHT22;12544;46.760;15.942;2022-09-09T14:46:11;24.40;99.90
24412;DHT22;12544;46.760;15.942;2022-09-09T14:48:37;24.40;99.90
24412;DHT22;12544;46.760;15.942;2022-09-09T14:51:09;24.40;99.90
24412;DHT22;12544;46.760;15.942;2022-09-09T14:53:35;24.40;99.90
24412;DHT22;12544;46.760;15.942;2022-09-09T14:56:08;24.40;99.90
24412;DHT22;12544;46.760;15.942;2022-09-09T14:58:34;24.40;99.90
24412;DHT22;12544;46.760;15.942;2022-09-09T15:01:04;24.40;99.90
24412;DHT22;12544;46.760;15.942;2022-09-09T15:03:30;24.30;99.90
24412;DHT22;12544;46.760;15.942;2022-09-09T15:05:55;24.30;99.90
24412;DHT22;12544;46.760;15.942;2022-09-09T15:08:23;24.20;99.90
24412;DHT22;12544;46.760;15.942;2022-09-09T15:10:49;24.30;99.90
24412;DHT22;12544;46.760;15.942;2022-09-09T15:13:15;24.20;99.90
24412;DHT22;12544;46.760;15.942;2022-09-09T15:15:42;24.10;99.90
24412;DHT22;12544;46.760;15.942;2022-09-09T15:18:08;24.00;99.90
24412;DHT22;12544;46.760;15.942;2022-09-09T15:20:33;24.00;99.90
24412;DHT22;12544;46.760;15.942;2022-09-09T15:23:02;23.90;99.90
24412;DHT22;12544;46.760;15.942;2022-09-09T15:25:28;23.90;99.90
24412;DHT22;12544;46.760;15.942;2022-09-09T15:27:53;23.90;99.90
24412;DHT22;12544;46.760;15.942;2022-09-09T15:30:19;23.80;99.90
24412;DHT22;12544;46.760;15.942;2022-09-09T15:32:44;23.80;99.90
24412;DHT22;12544;46.760;15.942;2022-09-09T15:35:09;23.80;99.90
24412;DHT22;12544;46.760;15.942;2022-09-09T15:37:35;23.80;99.90
24412;DHT22;12544;46.760;15.942;2022-09-09T15:40:00;23.80;99.90
24412;DHT22;12544;46.760;15.942;2022-09-09T15:42:26;23.80;99.90
24412;DHT22;12544;46.760;15.942;2022-09-09T15:44:52;23.80;99.90
24412;DHT22;12544;46.760;15.942;2022-09-09T15:47:17;23.80;99.90
24412;DHT22;12544;46.760;15.942;2022-09-09T15:49:43;23.80;99.90
24412;DHT22;12544;46.760;15.942;2022-09-09T15:52:09;23.80;99.90
24412;DHT22;12544;46.760;15.942;2022-09-09T15:54:36;23.80;99.90
24412;DHT22;12544;46.760;15.942;2022-09-09T15:57:04;23.70;99.90
24412;DHT22;12544;46.760;15.942;2022-09-09T15:59:30;23.80;99.90
24412;DHT22;12544;46.760;15.942;2022-09-09T16:01:56;23.80;99.90
24412;DHT22;12544;46.760;15.942;2022-09-09T16:04:23;23.70;99.90
24412;DHT22;12544;46.760;15.942;2022-09-09T16:06:52;23.70;99.90
24412;DHT22;12544;46.760;15.942;2022-09-09T16:09:18;23.70;99.90
24412;DHT22;12544;46.760;15.942;2022-09-09T16:11:44;23.60;99.90
24412;DHT22;12544;46.760;15.942;2022-09-09T16:14:10;23.50;99.90
24412;DHT22;12544;46.760;15.942;2022-09-09T16:16:36;23.50;99.90
24412;DHT22;12544;46.760;15.942;2022-09-09T16:19:05;23.50;99.90
24412;DHT22;12544;46.760;15.942;2022-09-09T16:21:45;23.40;99.90
24412;DHT22;12544;46.760;15.942;2022-09-09T16:24:12;23.30;99.90
24412;DHT22;12544;46.760;15.942;2022-09-09T16:26:39;23.10;99.90
24412;DHT22;12544;46.760;15.942;2022-09-09T16:29:05;23.00;99.90
24412;DHT22;12544;46.760;15.942;2022-09-09T16:31:31;22.90;99.90
24412;DHT22;12544;46.760;15.942;2022-09-09T16:33:59;22.70;99.90
24412;DHT22;12544;46.760;15.942;2022-09-09T16:38:55;22.50;99.90
24412;DHT22;12544;46.760;15.942;2022-09-09T16:41:22;22.20;99.90
24412;DHT22;12544;46.760;15.942;2022-09-09T16:43:52;22.10;99.90
24412;DHT22;12544;46.760;15.942;2022-09-09T16:46:18;22.00;99.90
24412;DHT22;12544;46.760;15.942;2022-09-09T16:48:45;21.90;99.90
24412;DHT22;12544;46.760;15.942;2022-09-09T16:51:15;21.80;99.90
24412;DHT22;12544;46.760;15.942;2022-09-09T16:53:41;21.60;99.90
24412;DHT22;12544;46.760;15.942;2022-09-09T16:56:14;21.50;99.90
24412;DHT22;12544;46.760;15.942;2022-09-09T16:58:40;21.40;99.90
24412;DHT22;12544;46.760;15.942;2022-09-09T17:01:08;21.30;99.90
24412;DHT22;12544;46.760;15.942;2022-09-09T17:03:34;21.10;99.90
24412;DHT22;12544;46.760;15.942;2022-09-09T17:05:59;20.90;99.90
24412;DHT22;12544;46.760;15.942;2022-09-09T17:08:29;20.80;99.90
24412;DHT22;12544;46.760;15.942;2022-09-09T17:10:55;20.70;99.90
24412;DHT22;12544;46.760;15.942;2022-09-09T17:13:20;20.70;99.90
24412;DHT22;12544;46.760;15.942;2022-09-09T17:15:46;20.60;99.90
24412;DHT22;12544;46.760;15.942;2022-09-09T17:18:12;20.60;99.90